createdAt,value
2022-11-19T00:01:28.087Z,-6.30
2022-11-19T00:03:55.850Z,-6.30
2022-11-19T00:06:25.599Z,-6.30
2022-11-19T00:08:53.069Z,-6.20
2022-11-19T00:11:57.821Z,-6.20
2022-11-19T00:14:25.104Z,-6.10
2022-11-19T00:16:52.235Z,-6.10
2022-11-19T00:19:19.775Z,-6.00
2022-11-19T00:21:47.243Z,-6.00
2022-11-19T00:24:14.527Z,-5.90
2022-11-19T00:26:41.811Z,-5.90
2022-11-19T00:29:15.515Z,-5.90
2022-11-19T00:31:45.241Z,-5.80
2022-11-19T00:34:12.552Z,-5.80
2022-11-19T00:36:39.813Z,-5.80
2022-11-19T00:39:07.212Z,-5.80
2022-11-19T00:41:34.768Z,-5.70
2022-11-19T00:44:01.903Z,-5.70
2022-11-19T00:46:31.362Z,-5.70
2022-11-19T00:49:00.040Z,-5.70
2022-11-19T00:51:29.678Z,-5.60
2022-11-19T00:53:57.493Z,-5.60
2022-11-19T00:56:26.766Z,-5.50
2022-11-19T00:58:54.637Z,-5.50
2022-11-19T01:01:23.933Z,-5.50
2022-11-19T01:03:51.451Z,-5.50
2022-11-19T01:06:20.875Z,-5.40
2022-11-19T01:08:49.446Z,-5.40
2022-11-19T01:11:22.737Z,-5.40
2022-11-19T01:13:50.344Z,-5.40
2022-11-19T01:16:23.285Z,-5.40
2022-11-19T01:18:51.115Z,-5.40
2022-11-19T01:21:20.341Z,-5.50
2022-11-19T01:23:47.674Z,-5.40
2022-11-19T01:26:15.351Z,-5.40
2022-11-19T01:28:42.937Z,-5.40
2022-11-19T01:31:11.942Z,-5.50
2022-11-19T01:33:39.463Z,-5.50
2022-11-19T01:36:11.164Z,-5.50
2022-11-19T01:38:38.458Z,-5.50
2022-11-19T01:41:06.127Z,-5.50
2022-11-19T01:43:52.662Z,-5.50
2022-11-19T01:46:22.651Z,-5.50
2022-11-19T01:49:12.916Z,-5.50
2022-11-19T01:51:49.294Z,-5.50
2022-11-19T01:54:28.465Z,-5.50
2022-11-19T01:56:57.946Z,-5.50
2022-11-19T01:59:27.195Z,-5.50
2022-11-19T02:01:54.478Z,-5.50
2022-11-19T02:04:22.564Z,-5.60
2022-11-19T02:06:49.843Z,-5.60
2022-11-19T02:09:17.117Z,-5.60
2022-11-19T02:11:47.158Z,-5.60
2022-11-19T02:14:35.539Z,-5.60
2022-11-19T02:17:21.962Z,-5.60
2022-11-19T02:20:13.742Z,-5.60
2022-11-19T02:23:22.601Z,-5.60
2022-11-19T02:25:52.677Z,-5.60
2022-11-19T02:28:43.537Z,-5.60
2022-11-19T02:31:21.472Z,-5.60
2022-11-19T02:33:54.127Z,-5.60
2022-11-19T02:36:31.947Z,-5.60
2022-11-19T02:39:06.278Z,-5.60
2022-11-19T02:41:55.737Z,-5.60
2022-11-19T02:45:04.567Z,-5.60
2022-11-19T02:47:41.787Z,-5.60
2022-11-19T02:50:19.337Z,-5.50
2022-11-19T02:52:47.597Z,-5.60
2022-11-19T02:55:18.291Z,-5.50
2022-11-19T02:57:52.194Z,-5.60
2022-11-19T03:00:38.296Z,-5.50
2022-11-19T03:03:27.046Z,-5.50
2022-11-19T03:06:02.346Z,-5.50
2022-11-19T03:08:29.669Z,-5.50
2022-11-19T03:11:17.486Z,-5.50
2022-11-19T03:14:26.523Z,-5.50
2022-11-19T03:17:01.765Z,-5.50
2022-11-19T03:19:47.089Z,-5.50
2022-11-19T03:22:34.450Z,-5.50
2022-11-19T03:25:47.565Z,-5.50
2022-11-19T03:28:21.661Z,-5.40
2022-11-19T03:30:51.448Z,-5.40
2022-11-19T03:33:34.087Z,-5.40
2022-11-19T03:36:18.718Z,-5.40
2022-11-19T03:38:54.683Z,-5.40
2022-11-19T03:41:24.117Z,-5.40
2022-11-19T03:44:02.530Z,-5.40
2022-11-19T03:46:32.698Z,-5.40
2022-11-19T03:49:02.627Z,-5.40
2022-11-19T03:51:51.943Z,-5.40
2022-11-19T03:54:19.457Z,-5.40
2022-11-19T03:56:48.651Z,-5.40
2022-11-19T03:59:17.091Z,-5.30
2022-11-19T04:01:46.948Z,-5.30
2022-11-19T04:04:33.005Z,-5.30
2022-11-19T04:07:00.329Z,-5.30
2022-11-19T04:09:27.500Z,-5.20
2022-11-19T04:14:20.671Z,-5.20
2022-11-19T04:16:47.820Z,-5.20
2022-11-19T04:19:14.990Z,-5.10
2022-11-19T04:21:42.135Z,-5.10
2022-11-19T04:24:09.585Z,-5.10
2022-11-19T04:26:36.795Z,-5.10
2022-11-19T04:29:04.065Z,-5.10
2022-11-19T04:31:31.277Z,-5.10
2022-11-19T04:33:58.428Z,-5.10
2022-11-19T04:36:25.720Z,-5.00
2022-11-19T04:38:52.945Z,-5.00
2022-11-19T04:41:20.186Z,-5.00
2022-11-19T04:43:47.322Z,-5.00
2022-11-19T04:46:14.493Z,-5.00
2022-11-19T04:48:41.757Z,-5.00
2022-11-19T04:51:08.885Z,-4.90
2022-11-19T04:53:36.043Z,-5.00
2022-11-19T04:56:03.573Z,-4.90
2022-11-19T04:58:30.739Z,-4.90
2022-11-19T05:00:57.893Z,-4.90
2022-11-19T05:03:25.187Z,-5.00
2022-11-19T05:05:52.720Z,-5.00
2022-11-19T05:08:20.259Z,-5.00
2022-11-19T05:10:47.631Z,-5.00
2022-11-19T05:13:14.859Z,-5.00
2022-11-19T05:15:42.229Z,-5.00
2022-11-19T05:18:09.615Z,-4.90
2022-11-19T05:20:36.760Z,-5.00
2022-11-19T05:23:04.001Z,-5.00
2022-11-19T05:25:31.278Z,-5.00
2022-11-19T05:27:58.439Z,-5.00
2022-11-19T05:30:25.681Z,-5.00
2022-11-19T05:32:52.970Z,-5.00
2022-11-19T05:35:20.102Z,-5.00
2022-11-19T05:37:51.179Z,-5.00
2022-11-19T05:40:18.952Z,-5.00
2022-11-19T05:42:46.144Z,-5.00
2022-11-19T05:45:13.592Z,-5.00
2022-11-19T05:47:45.925Z,-5.00
2022-11-19T05:50:15.616Z,-5.10
2022-11-19T05:52:42.879Z,-5.10
2022-11-19T05:55:10.053Z,-5.10
2022-11-19T05:57:37.315Z,-5.10
2022-11-19T06:00:05.780Z,-5.10
2022-11-19T06:02:32.970Z,-5.10
2022-11-19T06:05:00.156Z,-5.10
2022-11-19T06:07:27.482Z,-5.10
2022-11-19T06:09:54.843Z,-5.10
2022-11-19T06:12:22.293Z,-5.10
2022-11-19T06:14:49.697Z,-5.10
2022-11-19T06:17:16.993Z,-5.10
2022-11-19T06:19:44.200Z,-5.10
2022-11-19T06:22:11.513Z,-5.10
2022-11-19T06:24:38.700Z,-5.10
2022-11-19T06:27:05.870Z,-5.10
2022-11-19T06:29:33.641Z,-5.10
2022-11-19T06:32:00.884Z,-5.10
2022-11-19T06:34:28.024Z,-5.10
2022-11-19T06:36:55.152Z,-5.10
2022-11-19T06:39:22.786Z,-5.10
2022-11-19T06:41:50.477Z,-5.10
2022-11-19T06:44:17.842Z,-5.00
2022-11-19T06:46:45.043Z,-5.00
2022-11-19T06:49:16.864Z,-5.00
2022-11-19T06:51:47.075Z,-5.00
2022-11-19T06:54:14.352Z,-5.00
2022-11-19T06:56:41.462Z,-4.90
2022-11-19T06:59:08.673Z,-4.90
2022-11-19T07:01:36.008Z,-4.90
2022-11-19T07:04:03.316Z,-4.90
2022-11-19T07:06:30.381Z,-4.90
2022-11-19T07:08:57.491Z,-4.80
2022-11-19T07:11:27.283Z,-4.80
2022-11-19T07:13:59.154Z,-4.80
2022-11-19T07:16:31.871Z,-4.80
2022-11-19T07:19:00.661Z,-4.80
2022-11-19T07:21:29.231Z,-4.70
2022-11-19T07:23:57.560Z,-4.70
2022-11-19T07:26:25.218Z,-4.70
2022-11-19T07:28:52.347Z,-4.70
2022-11-19T07:31:19.625Z,-4.70
2022-11-19T07:33:46.893Z,-4.60
2022-11-19T07:36:18.330Z,-4.60
2022-11-19T07:38:47.320Z,-4.60
2022-11-19T07:41:33.379Z,-4.60
2022-11-19T07:44:00.719Z,-4.60
2022-11-19T07:46:27.895Z,-4.60
2022-11-19T07:48:56.928Z,-4.50
2022-11-19T07:51:25.079Z,-4.50
2022-11-19T07:53:52.880Z,-4.50
2022-11-19T07:56:20.774Z,-4.50
2022-11-19T07:58:47.903Z,-4.40
2022-11-19T08:01:20.042Z,-4.40
2022-11-19T08:03:52.056Z,-4.40
2022-11-19T08:06:24.438Z,-4.40
2022-11-19T08:08:51.636Z,-4.40
2022-11-19T08:11:18.918Z,-4.40
2022-11-19T08:13:46.171Z,-4.30
2022-11-19T08:16:34.142Z,-4.30
2022-11-19T08:19:09.718Z,-4.20
2022-11-19T08:21:40.261Z,-4.10
2022-11-19T08:24:08.061Z,-4.10
2022-11-19T08:26:35.734Z,-4.10
2022-11-19T08:29:03.033Z,-4.10
2022-11-19T08:31:30.259Z,-4.10
2022-11-19T08:33:57.657Z,-4.10
2022-11-19T08:36:24.805Z,-4.10
2022-11-19T08:38:52.306Z,-4.20
2022-11-19T08:41:37.814Z,-4.20
2022-11-19T08:44:05.756Z,-4.20
2022-11-19T08:46:32.941Z,-4.10
2022-11-19T08:49:00.172Z,-4.10
2022-11-19T08:51:27.355Z,-4.10
2022-11-19T08:53:54.520Z,-4.00
2022-11-19T08:56:22.429Z,-4.00
2022-11-19T08:58:50.066Z,-4.00
2022-11-19T09:01:18.400Z,-4.00
2022-11-19T09:03:45.818Z,-3.90
2022-11-19T09:06:13.213Z,-3.90
2022-11-19T09:08:41.626Z,-3.80
2022-11-19T09:11:14.676Z,-3.80
2022-11-19T09:13:41.736Z,-3.80
2022-11-19T09:16:09.803Z,-3.80
2022-11-19T09:18:39.413Z,-3.80
2022-11-19T09:21:11.752Z,-3.80
2022-11-19T09:23:40.162Z,-3.80
2022-11-19T09:26:11.595Z,-3.80
2022-11-19T09:28:38.801Z,-3.80
2022-11-19T09:31:11.450Z,-3.80
2022-11-19T09:33:42.331Z,-3.80
2022-11-19T09:36:11.428Z,-3.80
2022-11-19T09:38:40.138Z,-3.80
2022-11-19T09:41:19.222Z,-3.80
2022-11-19T09:43:58.340Z,-3.80
2022-11-19T09:46:34.007Z,-3.80
2022-11-19T09:49:08.027Z,-3.80
2022-11-19T09:51:37.368Z,-3.80
2022-11-19T09:54:14.554Z,-3.80
2022-11-19T09:56:50.373Z,-3.80
2022-11-19T09:59:38.458Z,-3.80
2022-11-19T10:02:20.599Z,-3.70
2022-11-19T10:04:49.636Z,-3.70
2022-11-19T10:07:54.788Z,-3.70
2022-11-19T10:11:03.520Z,-3.70
2022-11-19T10:13:49.415Z,-3.60
2022-11-19T10:16:48.524Z,-3.60
2022-11-19T10:19:40.152Z,-3.60
2022-11-19T10:22:37.850Z,-3.60
2022-11-19T10:25:18.422Z,-3.50
2022-11-19T10:27:55.322Z,-3.50
2022-11-19T10:30:28.942Z,-3.50
2022-11-19T10:33:01.189Z,-3.50
2022-11-19T10:35:33.534Z,-3.40
2022-11-19T10:38:04.503Z,-3.40
2022-11-19T10:40:43.586Z,-3.40
2022-11-19T10:43:50.594Z,-3.30
2022-11-19T10:46:24.611Z,-3.30
2022-11-19T10:49:00.858Z,-3.30
2022-11-19T10:51:38.150Z,-3.30
2022-11-19T10:54:14.628Z,-3.40
2022-11-19T10:56:43.498Z,-3.30
2022-11-19T10:59:18.808Z,-3.30
2022-11-19T11:01:53.964Z,-3.30
2022-11-19T11:04:23.439Z,-3.30
2022-11-19T11:07:05.106Z,-3.20
2022-11-19T11:09:44.619Z,-3.20
2022-11-19T11:12:32.495Z,-3.20
2022-11-19T11:15:09.204Z,-3.10
2022-11-19T11:17:38.813Z,-3.10
2022-11-19T11:20:28.625Z,-3.10
2022-11-19T11:23:10.929Z,-3.00
2022-11-19T11:25:50.783Z,-3.00
2022-11-19T11:28:20.793Z,-3.00
2022-11-19T11:30:57.716Z,-3.00
2022-11-19T11:33:24.825Z,-3.00
2022-11-19T11:35:58.132Z,-2.90
2022-11-19T11:38:27.633Z,-2.90
2022-11-19T11:44:08.775Z,-3.00
2022-11-19T11:46:57.359Z,-3.10
2022-11-19T11:49:35.212Z,-3.10
2022-11-19T11:52:17.594Z,-3.00
2022-11-19T11:55:14.050Z,-3.10
2022-11-19T11:57:54.942Z,-3.10
2022-11-19T12:00:38.421Z,-3.20
2022-11-19T12:03:19.409Z,-3.20
2022-11-19T12:06:01.691Z,-3.20
2022-11-19T12:08:46.942Z,-3.20
2022-11-19T12:11:51.944Z,-3.30
2022-11-19T12:14:40.820Z,-3.30
2022-11-19T12:17:20.061Z,-3.30
2022-11-19T12:20:25.801Z,-3.30
2022-11-19T12:23:33.650Z,-3.30
2022-11-19T12:26:44.611Z,-3.30
2022-11-19T12:29:38.718Z,-3.30
2022-11-19T12:32:31.953Z,-3.20
2022-11-19T12:35:36.590Z,-3.20
2022-11-19T12:38:36.604Z,-3.10
2022-11-19T12:41:33.030Z,-3.10
2022-11-19T12:44:03.070Z,-3.00
2022-11-19T12:46:36.452Z,-3.00
2022-11-19T12:49:06.430Z,-3.00
2022-11-19T12:52:05.729Z,-2.90
2022-11-19T12:54:53.990Z,-2.80
2022-11-19T12:57:45.556Z,-2.80
2022-11-19T13:00:19.600Z,-2.80
2022-11-19T13:03:07.452Z,-2.80
2022-11-19T13:06:03.416Z,-2.70
2022-11-19T13:08:45.498Z,-2.70
2022-11-19T13:11:36.683Z,-2.60
2022-11-19T13:14:17.853Z,-2.60
2022-11-19T13:16:45.504Z,-2.50
2022-11-19T13:19:34.622Z,-2.60
2022-11-19T13:22:17.075Z,-2.60
2022-11-19T13:24:54.773Z,-2.70
2022-11-19T13:27:25.590Z,-2.70
2022-11-19T13:30:07.182Z,-2.80
2022-11-19T13:32:42.983Z,-2.90
2022-11-19T13:35:10.520Z,-3.00
2022-11-19T13:38:01.719Z,-3.10
2022-11-19T13:40:42.041Z,-3.10
2022-11-19T13:43:38.179Z,-3.20
2022-11-19T13:46:11.051Z,-3.20
2022-11-19T13:48:44.013Z,-3.30
2022-11-19T13:51:23.611Z,-3.30
2022-11-19T13:53:50.822Z,-3.30
2022-11-19T13:56:18.125Z,-3.40
2022-11-19T13:58:51.861Z,-3.40
2022-11-19T14:01:40.211Z,-3.40
2022-11-19T14:04:36.699Z,-3.40
2022-11-19T14:07:30.713Z,-3.40
2022-11-19T14:10:23.967Z,-3.40
2022-11-19T14:12:57.194Z,-3.50
2022-11-19T14:15:49.493Z,-3.50
2022-11-19T14:18:43.791Z,-3.50
2022-11-19T14:21:44.551Z,-3.60
2022-11-19T14:24:45.058Z,-3.60
2022-11-19T14:27:31.924Z,-3.60
2022-11-19T14:30:06.706Z,-3.70
2022-11-19T14:32:41.589Z,-3.70
2022-11-19T14:35:31.249Z,-3.70
2022-11-19T14:38:25.521Z,-3.80
2022-11-19T14:41:04.370Z,-3.80
2022-11-19T14:44:09.776Z,-3.80
2022-11-19T14:46:45.263Z,-3.80
2022-11-19T14:49:40.111Z,-3.80
2022-11-19T14:52:32.795Z,-3.80
2022-11-19T14:55:28.477Z,-3.80
2022-11-19T14:58:15.780Z,-3.80
2022-11-19T15:00:43.421Z,-3.80
2022-11-19T15:03:24.116Z,-3.80
2022-11-19T15:05:51.801Z,-3.90
2022-11-19T15:08:18.895Z,-3.90
2022-11-19T15:11:07.105Z,-3.90
2022-11-19T15:14:10.225Z,-3.90
2022-11-19T15:16:37.583Z,-4.00
2022-11-19T15:19:17.384Z,-4.00
2022-11-19T15:21:58.483Z,-4.00
2022-11-19T15:25:16.666Z,-4.00
2022-11-19T15:28:25.482Z,-4.00
2022-11-19T15:31:14.358Z,-4.10
2022-11-19T15:33:52.333Z,-4.10
2022-11-19T15:36:35.925Z,-4.10
2022-11-19T15:39:13.040Z,-4.10
2022-11-19T15:42:00.687Z,-4.20
2022-11-19T15:44:55.223Z,-4.20
2022-11-19T15:47:39.376Z,-4.20
2022-11-19T15:50:14.862Z,-4.20
2022-11-19T15:52:41.945Z,-4.20
2022-11-19T15:55:12.820Z,-4.20
2022-11-19T15:57:44.137Z,-4.30
2022-11-19T16:00:23.844Z,-4.30
2022-11-19T16:02:53.153Z,-4.30
2022-11-19T16:05:34.345Z,-4.30
2022-11-19T16:08:07.783Z,-4.30
2022-11-19T16:10:39.998Z,-4.30
2022-11-19T16:13:45.472Z,-4.40
2022-11-19T16:16:39.604Z,-4.30
2022-11-19T16:19:06.865Z,-4.30
2022-11-19T16:21:38.182Z,-4.30
2022-11-19T16:24:31.937Z,-4.30
2022-11-19T16:27:01.464Z,-4.30
2022-11-19T16:29:28.817Z,-4.40
2022-11-19T16:32:02.494Z,-4.40
2022-11-19T16:34:32.840Z,-4.40
2022-11-19T16:37:00.422Z,-4.40
2022-11-19T16:39:31.195Z,-4.30
2022-11-19T16:42:17.167Z,-4.40
2022-11-19T16:44:54.364Z,-4.40
2022-11-19T16:47:40.316Z,-4.40
2022-11-19T16:50:35.412Z,-4.40
2022-11-19T16:53:05.194Z,-4.40
2022-11-19T16:55:34.203Z,-4.40
2022-11-19T16:58:04.615Z,-4.40
2022-11-19T17:00:37.146Z,-4.30
2022-11-19T17:03:26.044Z,-4.30
2022-11-19T17:05:53.982Z,-4.30
2022-11-19T17:08:31.182Z,-4.30
2022-11-19T17:11:40.832Z,-4.30
2022-11-19T17:14:23.447Z,-4.30
2022-11-19T17:16:53.180Z,-4.30
2022-11-19T17:19:31.663Z,-4.30
2022-11-19T17:22:03.726Z,-4.40
2022-11-19T17:24:34.698Z,-4.30
2022-11-19T17:27:02.229Z,-4.30
2022-11-19T17:29:29.572Z,-4.30
2022-11-19T17:31:57.214Z,-4.30
2022-11-19T17:34:33.785Z,-4.40
2022-11-19T17:37:01.253Z,-4.30
2022-11-19T17:39:28.647Z,-4.30
2022-11-19T17:42:14.908Z,-4.30
2022-11-19T17:44:42.582Z,-4.40
2022-11-19T17:47:23.853Z,-4.40
2022-11-19T17:49:52.818Z,-4.30
2022-11-19T17:52:27.583Z,-4.30
2022-11-19T17:55:04.728Z,-4.30
2022-11-19T17:57:32.850Z,-4.40
2022-11-19T18:00:00.063Z,-4.30
2022-11-19T18:02:27.446Z,-4.30
2022-11-19T18:04:54.535Z,-4.30
2022-11-19T18:07:21.779Z,-4.30
2022-11-19T18:09:49.136Z,-4.30
2022-11-19T18:12:19.991Z,-4.40
2022-11-19T18:14:47.719Z,-4.30
2022-11-19T18:17:16.685Z,-4.30
2022-11-19T18:19:43.867Z,-4.40
2022-11-19T18:22:19.102Z,-4.30
2022-11-19T18:24:54.541Z,-4.30
2022-11-19T18:27:22.699Z,-4.40
2022-11-19T18:29:50.157Z,-4.40
2022-11-19T18:32:18.822Z,-4.40
2022-11-19T18:34:47.976Z,-4.40
2022-11-19T18:37:15.446Z,-4.40
2022-11-19T18:39:43.547Z,-4.40
2022-11-19T18:42:14.670Z,-4.40
2022-11-19T18:44:44.554Z,-4.40
2022-11-19T18:47:15.625Z,-4.40
2022-11-19T18:49:44.335Z,-4.40
2022-11-19T18:52:17.869Z,-4.30
2022-11-19T18:54:45.522Z,-4.30
2022-11-19T18:57:14.931Z,-4.30
2022-11-19T18:59:45.411Z,-4.40
2022-11-19T19:02:13.263Z,-4.30
2022-11-19T19:04:42.944Z,-4.40
2022-11-19T19:07:11.047Z,-4.40
2022-11-19T19:09:38.533Z,-4.40
2022-11-19T19:12:20.105Z,-4.40
2022-11-19T19:14:51.841Z,-4.40
2022-11-19T19:17:21.232Z,-4.40
2022-11-19T19:19:50.062Z,-4.40
2022-11-19T19:22:18.575Z,-4.40
2022-11-19T19:24:47.488Z,-4.40
2022-11-19T19:27:15.675Z,-4.40
2022-11-19T19:29:43.763Z,-4.50
2022-11-19T19:32:11.128Z,-4.50
2022-11-19T19:34:38.804Z,-4.50
2022-11-19T19:37:06.334Z,-4.50
2022-11-19T19:39:33.933Z,-4.50
2022-11-19T19:42:01.033Z,-4.50
2022-11-19T19:44:28.148Z,-4.50
2022-11-19T19:46:55.373Z,-4.50
2022-11-19T19:49:22.610Z,-4.50
2022-11-19T19:51:49.916Z,-4.50
2022-11-19T19:54:17.337Z,-4.50
2022-11-19T19:56:44.495Z,-4.50
2022-11-19T19:59:14.131Z,-4.50
2022-11-19T20:01:45.302Z,-4.50
2022-11-19T20:04:12.522Z,-4.50
2022-11-19T20:06:44.683Z,-4.50
2022-11-19T20:09:11.891Z,-4.50
2022-11-19T20:11:39.191Z,-4.50
2022-11-19T20:14:06.535Z,-4.50
2022-11-19T20:16:35.272Z,-4.50
2022-11-19T20:19:02.781Z,-4.50
2022-11-19T20:21:34.230Z,-4.50
2022-11-19T20:24:04.907Z,-4.40
2022-11-19T20:26:34.461Z,-4.40
2022-11-19T20:29:04.283Z,-4.40
2022-11-19T20:31:32.484Z,-4.40
2022-11-19T20:34:01.655Z,-4.40
2022-11-19T20:36:31.187Z,-4.50
2022-11-19T20:38:59.061Z,-4.50
2022-11-19T20:41:46.153Z,-4.50
2022-11-19T20:44:21.672Z,-4.60
2022-11-19T20:47:02.472Z,-4.60
2022-11-19T20:49:41.908Z,-4.60
2022-11-19T20:52:10.942Z,-4.60
2022-11-19T20:54:38.077Z,-4.60
2022-11-19T20:57:05.318Z,-4.60
2022-11-19T20:59:32.546Z,-4.60
2022-11-19T21:02:00.291Z,-4.60
2022-11-19T21:04:36.531Z,-4.60
2022-11-19T21:07:04.983Z,-4.60
2022-11-19T21:09:32.209Z,-4.60
2022-11-19T21:11:59.377Z,-4.60
2022-11-19T21:14:26.673Z,-4.60
2022-11-19T21:16:53.876Z,-4.60
2022-11-19T21:19:21.531Z,-4.60
2022-11-19T21:21:48.979Z,-4.60
2022-11-19T21:24:16.195Z,-4.60
2022-11-19T21:26:43.536Z,-4.60
2022-11-19T21:29:10.659Z,-4.60
2022-11-19T21:31:42.687Z,-4.60
2022-11-19T21:34:12.324Z,-4.60
2022-11-19T21:36:41.016Z,-4.60
2022-11-19T21:39:08.592Z,-4.70
2022-11-19T21:41:36.106Z,-4.60
2022-11-19T21:44:04.752Z,-4.60
2022-11-19T21:46:32.334Z,-4.60
2022-11-19T21:48:59.627Z,-4.70
2022-11-19T21:51:26.891Z,-4.70
2022-11-19T21:53:58.546Z,-4.70
2022-11-19T21:56:27.007Z,-4.70
2022-11-19T21:58:54.199Z,-4.70
2022-11-19T22:01:21.641Z,-4.70
2022-11-19T22:03:49.361Z,-4.70
2022-11-19T22:06:17.003Z,-4.80
2022-11-19T22:08:44.306Z,-4.80
2022-11-19T22:11:31.526Z,-4.80
2022-11-19T22:14:02.129Z,-4.80
2022-11-19T22:16:30.444Z,-4.80
2022-11-19T22:18:57.868Z,-4.80
2022-11-19T22:21:26.366Z,-4.80
2022-11-19T22:26:34.709Z,-4.90
2022-11-19T22:29:01.946Z,-4.90
2022-11-19T22:31:29.049Z,-4.90
2022-11-19T22:33:56.581Z,-4.90
2022-11-19T22:36:24.228Z,-4.90
2022-11-19T22:38:52.446Z,-4.90
2022-11-19T22:41:21.261Z,-5.00
2022-11-19T22:43:49.217Z,-4.90
2022-11-19T22:46:16.735Z,-4.90
2022-11-19T22:48:44.179Z,-4.90
2022-11-19T22:51:20.362Z,-5.00
2022-11-19T22:53:48.996Z,-5.00
2022-11-19T22:56:22.357Z,-5.00
2022-11-19T22:58:50.220Z,-5.00
2022-11-19T23:01:37.760Z,-5.00
2022-11-19T23:04:07.174Z,-5.00
2022-11-19T23:06:36.163Z,-4.90
2022-11-19T23:09:05.152Z,-4.90
2022-11-19T23:11:50.858Z,-4.90
2022-11-19T23:14:19.111Z,-4.90
2022-11-19T23:16:46.741Z,-4.90
2022-11-19T23:19:15.046Z,-4.90
2022-11-19T23:21:42.265Z,-4.90
2022-11-19T23:24:10.078Z,-4.90
2022-11-19T23:26:38.184Z,-4.90
2022-11-19T23:29:05.840Z,-4.90
2022-11-19T23:31:38.382Z,-4.90
2022-11-19T23:34:06.492Z,-4.80
2022-11-19T23:36:36.837Z,-4.80
2022-11-19T23:39:05.947Z,-4.80
2022-11-19T23:41:34.239Z,-4.80
2022-11-19T23:44:02.191Z,-4.90
2022-11-19T23:46:32.462Z,-4.80
2022-11-19T23:49:00.122Z,-4.90
2022-11-19T23:51:30.274Z,-4.90
2022-11-19T23:53:58.057Z,-4.90
2022-11-19T23:56:26.438Z,-4.90
2022-11-19T23:58:54.086Z,-4.90
